You are not logged in, Click here to log in
機場資訊:ZSSS Welcome to Taiwan Airways 台灣虛擬航空
ICAO: ZSSS Country: 中國上海市長寧區、閔行區
Latitude: 31.1919 Longitude: 121.337
Total Arrivals: 55 Total Departures: 53
Latest Arrival: FS55 (RCTP-ZSSS)CHU. CHUHAO Latest Departure: CA1832 (ZSSS-ZBAA)Arthur. Kung
Scenery:
METAR : ZSSS 132100Z 02002MPS CAVOK 21/18 Q1022 NOSIG

上海虹橋國際機場SHA